Time;durP1;ratioP1;P1;durP2;ratioP2;P2;SDS_P1;SDS_P2;PMS_P1;PMS_P2;Temp;Humidity;BMP_temperature;BMP_pressure;BME280_temperature;BME280_humidity;BME280_pressure;Samples;Min_cycle;Max_cycle;Signal;HPM_P1;HPM_P2
2021/12/25 00:00:10;;;;;;;1.65;1.10;;;-2.30;99.90;;;;;;5071913;28;20211;-49
2021/12/25 00:02:37;;;;;;;2.28;1.70;;;-2.40;99.90;;;;;;5071578;28;20223;-50
2021/12/25 00:05:05;;;;;;;2.85;1.40;;;-2.40;99.90;;;;;;5053487;28;20206;-50
2021/12/25 00:07:33;;;;;;;1.73;1.38;;;-2.40;99.90;;;;;;5072009;28;20549;-50
2021/12/25 00:10:02;;;;;;;6.55;1.65;;;-2.40;99.90;;;;;;5071254;28;20569;-50
2021/12/25 00:12:29;;;;;;;4.43;1.80;;;-2.40;99.90;;;;;;5071718;28;20209;-50
2021/12/25 00:14:55;;;;;;;2.10;1.65;;;-2.40;99.90;;;;;;5071499;28;20203;-50
2021/12/25 00:17:22;;;;;;;4.07;2.10;;;-2.40;99.90;;;;;;5071670;28;20209;-49
2021/12/25 00:19:49;;;;;;;1.98;1.27;;;-2.40;99.90;;;;;;5071067;28;20199;-49
2021/12/25 00:22:16;;;;;;;2.88;1.25;;;-2.40;99.90;;;;;;5071864;28;20210;-49
2021/12/25 00:24:44;;;;;;;1.98;1.20;;;-2.40;99.90;;;;;;5071276;28;20664;-49
2021/12/25 00:27:35;;;;;;;1.90;1.20;;;-2.40;99.90;;;;;;5071757;28;20199;-50
2021/12/25 00:30:15;;;;;;;2.60;1.60;;;-2.40;99.90;;;;;;5070907;28;20214;-50
2021/12/25 00:32:52;;;;;;;1.63;1.45;;;-2.40;99.90;;;;;;5053535;28;20214;-50
2021/12/25 00:35:18;;;;;;;3.92;1.77;;;-2.40;99.90;;;;;;5053163;28;20223;-49
2021/12/25 00:37:46;;;;;;;2.83;2.13;;;-2.40;99.90;;;;;;5057065;28;20643;-50
2021/12/25 00:40:13;;;;;;;1.98;1.40;;;-2.40;99.90;;;;;;5057063;28;20214;-49
2021/12/25 00:42:41;;;;;;;1.58;1.25;;;-2.40;99.90;;;;;;5075322;28;20283;-49
2021/12/25 00:45:09;;;;;;;2.25;1.30;;;-2.40;99.90;;;;;;5057091;28;20226;-49
2021/12/25 00:47:36;;;;;;;2.22;1.55;;;-2.40;99.90;;;;;;5057331;28;20401;-50
2021/12/25 00:50:03;;;;;;;2.10;1.20;;;-2.50;99.90;;;;;;5074673;28;20195;-50
2021/12/25 00:52:29;;;;;;;2.40;1.10;;;-2.50;99.90;;;;;;5074912;28;20199;-49
2021/12/25 00:54:57;;;;;;;2.85;1.50;;;-2.50;99.90;;;;;;5074588;28;20203;-50
2021/12/25 00:57:23;;;;;;;3.03;2.05;;;-2.50;99.90;;;;;;5075336;28;20215;-49
2021/12/25 00:59:51;;;;;;;2.20;1.20;;;-2.50;99.90;;;;;;5056492;28;20650;-50
2021/12/25 01:02:19;;;;;;;3.97;1.70;;;-2.50;99.90;;;;;;5056544;28;20295;-48
2021/12/25 01:04:45;;;;;;;2.53;1.50;;;-2.50;99.90;;;;;;5056951;28;20199;-48
2021/12/25 01:07:12;;;;;;;2.20;1.17;;;-2.50;99.90;;;;;;5056782;28;20277;-49
2021/12/25 01:09:41;;;;;;;2.75;1.55;;;-2.50;99.90;;;;;;5056546;28;20204;-49
2021/12/25 01:12:09;;;;;;;2.03;1.50;;;-2.60;99.90;;;;;;5056827;28;20291;-48
2021/12/25 01:14:41;;;;;;;1.80;1.50;;;-2.50;99.90;;;;;;5056748;28;20200;-48
2021/12/25 01:17:56;;;;;;;2.85;1.77;;;-2.60;99.90;;;;;;5056900;28;20564;-51
2021/12/25 01:26:54;;;;;;;3.45;2.20;;;-2.70;99.90;;;;;;4990400;28;20230;-48
2021/12/25 01:29:31;;;;;;;4.05;1.52;;;-2.70;99.90;;;;;;5056495;28;20199;-50
2021/12/25 01:32:20;;;;;;;3.30;1.50;;;-2.70;99.90;;;;;;5056453;28;20191;-50
2021/12/25 01:35:23;;;;;;;2.95;1.50;;;-2.70;99.90;;;;;;5056372;28;20575;-52
2021/12/25 01:38:23;;;;;;;3.15;1.42;;;-2.70;99.90;;;;;;5056380;28;20667;-50
2021/12/25 01:41:57;;;;;;;3.70;1.35;;;-2.70;99.90;;;;;;5074229;28;20688;-51
2021/12/25 01:47:48;;;;;;;2.33;1.27;;;-2.80;99.90;;;;;;5055402;28;20698;-50
2021/12/25 01:50:19;;;;;;;2.38;1.42;;;-2.80;99.90;;;;;;5056964;28;20203;-50
2021/12/25 01:52:46;;;;;;;2.75;1.20;;;-2.80;99.90;;;;;;5056577;28;20199;-49
2021/12/25 01:55:17;;;;;;;3.00;1.60;;;-2.90;99.90;;;;;;5074723;28;20594;-50
2021/12/25 01:57:43;;;;;;;2.63;1.77;;;-2.80;99.90;;;;;;5056617;28;20573;-49
2021/12/25 02:00:14;;;;;;;3.15;1.90;;;-2.90;99.90;;;;;;5056490;28;20217;-50
2021/12/25 02:02:44;;;;;;;1.80;1.45;;;-2.90;99.90;;;;;;5074350;28;20206;-49
2021/12/25 02:05:11;;;;;;;3.53;1.38;;;-2.90;99.90;;;;;;5056828;28;20223;-49
2021/12/25 02:07:39;;;;;;;3.28;1.67;;;-2.90;99.90;;;;;;5056861;28;20278;-50
2021/12/25 02:10:07;;;;;;;5.25;3.22;;;-2.90;99.90;;;;;;5056286;28;20207;-50
2021/12/25 02:12:36;;;;;;;3.70;1.55;;;-2.90;99.90;;;;;;5056447;28;20728;-50
2021/12/25 02:15:08;;;;;;;3.95;2.05;;;-2.90;99.90;;;;;;5056647;28;20199;-50
2021/12/25 02:17:52;;;;;;;3.67;1.42;;;-3.00;99.90;;;;;;5056386;28;20247;-50
2021/12/25 02:20:38;;;;;;;2.33;1.58;;;-3.00;99.90;;;;;;5056141;28;20256;-50
2021/12/25 02:23:11;;;;;;;4.70;1.75;;;-3.00;99.90;;;;;;5073891;28;20599;-50
2021/12/25 02:25:38;;;;;;;2.33;1.65;;;-3.00;99.90;;;;;;5056114;28;20227;-50
2021/12/25 02:28:06;;;;;;;3.10;1.60;;;-3.00;99.90;;;;;;5055575;28;20221;-50
2021/12/25 02:30:33;;;;;;;2.50;1.40;;;-3.00;99.90;;;;;;5073807;28;20202;-50
2021/12/25 02:33:00;;;;;;;1.92;1.40;;;-3.00;99.90;;;;;;5055977;28;20229;-50
2021/12/25 02:35:29;;;;;;;2.83;1.20;;;-3.00;99.90;;;;;;5055799;28;20314;-49
2021/12/25 02:37:57;;;;;;;7.28;1.90;;;-3.00;99.90;;;;;;5055409;28;20191;-50
2021/12/25 02:40:24;;;;;;;4.60;1.50;;;-3.00;99.90;;;;;;5055678;28;20290;-49
2021/12/25 02:42:51;;;;;;;2.55;1.45;;;-3.00;99.90;;;;;;5055740;28;20714;-49
2021/12/25 02:45:19;;;;;;;1.70;1.55;;;-3.00;99.90;;;;;;5073524;28;20211;-50
2021/12/25 02:47:48;;;;;;;2.60;1.48;;;-3.00;99.90;;;;;;5055114;28;20207;-50
2021/12/25 02:50:23;;;;;;;2.70;1.33;;;-3.00;99.90;;;;;;5055611;28;20196;-50
2021/12/25 02:52:50;;;;;;;2.10;1.40;;;-3.20;99.90;;;;;;5055321;28;20203;-50
2021/12/25 02:55:18;;;;;;;1.30;1.20;;;-3.00;99.90;;;;;;5073589;28;20219;-50
2021/12/25 02:57:50;;;;;;;1.90;1.42;;;-3.00;99.90;;;;;;5055073;28;20313;-49
2021/12/25 03:00:18;;;;;;;3.97;2.92;;;-3.00;99.90;;;;;;5054499;28;20257;-49
2021/12/25 03:02:45;;;;;;;3.92;1.55;;;-3.10;99.90;;;;;;5073207;28;20562;-50
2021/12/25 03:05:12;;;;;;;2.40;1.30;;;-3.10;99.90;;;;;;5055527;28;20574;-49
2021/12/25 03:07:39;;;;;;;3.55;1.73;;;-3.10;99.90;;;;;;5054859;28;20302;-49
2021/12/25 03:10:08;;;;;;;4.18;2.08;;;-3.10;99.90;;;;;;5073298;28;20199;-50
2021/12/25 03:12:47;;;;;;;3.08;1.60;;;-3.10;99.90;;;;;;5055501;28;20272;-49
2021/12/25 03:15:17;;;;;;;3.58;1.80;;;-3.10;99.90;;;;;;5055669;28;20730;-50
2021/12/25 03:17:45;;;;;;;2.97;1.33;;;-3.20;99.90;;;;;;5054683;28;20370;-50
2021/12/25 03:20:12;;;;;;;2.08;1.30;;;-3.10;99.90;;;;;;5073879;28;20195;-50
2021/12/25 03:22:40;;;;;;;4.15;2.42;;;-3.20;99.90;;;;;;5055148;28;20309;-50
2021/12/25 03:25:10;;;;;;;1.58;1.33;;;-3.10;99.90;;;;;;5055095;28;20218;-50
2021/12/25 03:27:39;;;;;;;4.00;1.70;;;-3.10;99.90;;;;;;5073219;28;20192;-49
2021/12/25 03:30:08;;;;;;;4.63;1.55;;;-3.40;99.90;;;;;;5055299;28;20288;-50
2021/12/25 03:32:35;;;;;;;3.55;1.77;;;-3.20;99.90;;;;;;5055331;28;20266;-50
2021/12/25 03:35:02;;;;;;;1.75;1.45;;;-3.10;99.90;;;;;;5072913;28;20207;-50
2021/12/25 03:37:28;;;;;;;3.35;1.60;;;-3.20;99.90;;;;;;5072830;28;20223;-50
2021/12/25 03:39:55;;;;;;;3.35;1.67;;;-3.30;99.90;;;;;;5054921;28;20237;-50
2021/12/25 03:42:21;;;;;;;2.42;1.25;;;-3.20;99.90;;;;;;5055337;28;20195;-50
2021/12/25 03:44:50;;;;;;;2.50;1.48;;;-3.20;99.90;;;;;;5072559;28;20191;-50
2021/12/25 03:47:25;;;;;;;2.45;1.77;;;-3.20;99.90;;;;;;5072804;28;20287;-49
2021/12/25 03:58:15;;;;;;;2.90;1.95;;;-3.20;99.90;;;;;;5054743;28;20729;-50
2021/12/25 04:00:46;;;;;;;7.63;1.88;;;-3.40;99.90;;;;;;5054535;28;20207;-50
2021/12/25 04:03:20;;;;;;;3.05;2.40;;;-3.30;99.90;;;;;;5055058;28;20299;-50
2021/12/25 04:05:48;;;;;;;2.80;1.75;;;-3.20;99.90;;;;;;5072427;28;20218;-50
2021/12/25 04:08:19;;;;;;;5.10;1.90;;;-3.30;99.90;;;;;;5072795;28;20722;-50
2021/12/25 04:10:50;;;;;;;4.05;1.70;;;-3.30;99.90;;;;;;5054262;28;20664;-50
2021/12/25 04:13:19;;;;;;;7.88;1.95;;;-3.30;99.90;;;;;;5054300;28;20195;-50
2021/12/25 04:15:47;;;;;;;3.33;1.40;;;-3.30;99.90;;;;;;5054299;28;20250;-51
2021/12/25 04:18:14;;;;;;;2.35;1.50;;;-3.30;99.90;;;;;;5053776;28;20231;-50
2021/12/25 04:20:41;;;;;;;2.67;1.13;;;-3.30;99.90;;;;;;5072368;28;20202;-51
2021/12/25 04:23:12;;;;;;;3.50;1.98;;;-3.30;99.90;;;;;;5054541;28;20195;-50
2021/12/25 04:25:39;;;;;;;2.25;1.70;;;-3.30;99.90;;;;;;5072623;28;20222;-50
2021/12/25 04:28:13;;;;;;;3.85;1.70;;;-3.30;99.90;;;;;;5073683;28;20230;-50
2021/12/25 04:30:59;;;;;;;1.58;1.17;;;-3.30;99.90;;;;;;5073143;28;20282;-50
2021/12/25 05:04:12;;;;;;;2.33;1.33;;;-3.50;99.90;;;;;;5071570;28;20575;-49
2021/12/25 05:06:58;;;;;;;4.05;1.75;;;-3.50;99.90;;;;;;5071602;28;20325;-50
2021/12/25 05:09:25;;;;;;;3.92;1.60;;;-3.50;99.90;;;;;;5053273;28;20222;-49
2021/12/25 05:11:52;;;;;;;2.60;2.10;;;-3.50;99.90;;;;;;5071237;28;20215;-49
2021/12/25 05:14:19;;;;;;;2.92;1.70;;;-3.50;99.90;;;;;;5053377;28;20195;-49
2021/12/25 05:16:46;;;;;;;4.25;2.03;;;-3.50;99.90;;;;;;5053325;28;20334;-50
2021/12/25 05:19:13;;;;;;;4.40;3.00;;;-3.60;99.90;;;;;;5052906;28;20555;-50
2021/12/25 05:21:40;;;;;;;2.65;2.05;;;-3.50;99.90;;;;;;5071303;28;20196;-50
2021/12/25 05:24:09;;;;;;;3.00;1.88;;;-3.50;99.90;;;;;;5056341;28;20192;-50
2021/12/25 05:26:41;;;;;;;2.42;1.70;;;-3.50;99.90;;;;;;5057241;28;20306;-49
2021/12/25 05:29:08;;;;;;;3.40;2.00;;;-3.50;99.90;;;;;;5056471;28;20195;-50
2021/12/25 05:31:37;;;;;;;2.78;1.88;;;-3.50;99.90;;;;;;5074739;28;20294;-49
2021/12/25 05:34:16;;;;;;;5.85;1.90;;;-3.50;99.90;;;;;;5056750;28;20203;-49
2021/12/25 05:36:55;;;;;;;3.25;1.65;;;-3.60;99.90;;;;;;5056812;28;20222;-49
2021/12/25 05:39:58;;;;;;;6.03;1.73;;;-3.50;99.90;;;;;;5074159;28;20206;-49
2021/12/25 05:42:29;;;;;;;3.13;1.65;;;-3.60;99.90;;;;;;5056339;28;20209;-50
2021/12/25 05:44:56;;;;;;;3.17;1.88;;;-3.60;99.90;;;;;;5056226;28;20230;-50
2021/12/25 05:47:26;;;;;;;3.03;1.98;;;-3.60;99.90;;;;;;5074599;28;20200;-49
2021/12/25 05:50:13;;;;;;;11.10;1.80;;;-3.60;99.90;;;;;;5073527;28;20203;-50
2021/12/25 05:52:59;;;;;;;2.28;1.50;;;-3.60;99.90;;;;;;5074672;28;20198;-50
2021/12/25 05:55:30;;;;;;;3.78;1.40;;;-3.60;99.90;;;;;;5074197;28;20230;-50
2021/12/25 05:58:09;;;;;;;7.28;2.08;;;-3.60;99.90;;;;;;5055701;28;20681;-49
2021/12/25 06:00:39;;;;;;;2.35;1.45;;;-3.60;99.90;;;;;;5074200;28;20557;-49
2021/12/25 06:03:06;;;;;;;3.13;1.63;;;-3.60;99.90;;;;;;5035814;28;20234;-49
2021/12/25 06:05:36;;;;;;;3.85;1.55;;;-3.60;99.90;;;;;;5035894;28;20273;-49
2021/12/25 06:08:03;;;;;;;5.15;1.92;;;-3.60;99.90;;;;;;5035545;28;20210;-49
2021/12/25 06:10:31;;;;;;;2.30;1.50;;;-3.60;99.90;;;;;;5053791;28;20196;-49
2021/12/25 06:12:59;;;;;;;5.13;1.73;;;-3.60;99.90;;;;;;5035440;28;20215;-49
2021/12/25 06:15:28;;;;;;;2.58;1.63;;;-3.60;99.90;;;;;;5035582;28;20227;-49
2021/12/25 06:17:56;;;;;;;1.67;1.35;;;-3.60;99.90;;;;;;5035176;28;20688;-49
2021/12/25 06:20:32;;;;;;;4.40;1.60;;;-3.60;99.90;;;;;;5035856;28;20208;-50
2021/12/25 06:22:58;;;;;;;2.50;1.40;;;-3.60;99.90;;;;;;5054589;28;20200;-49
2021/12/25 06:25:56;;;;;;;2.50;1.70;;;-3.60;99.90;;;;;;5029716;28;20232;-49
2021/12/25 06:28:38;;;;;;;2.97;1.95;;;-3.70;99.90;;;;;;5052968;28;20191;-49
2021/12/25 06:31:24;;;;;;;4.20;1.58;;;-3.70;99.90;;;;;;5053703;28;20207;-49
2021/12/25 06:33:58;;;;;;;1.98;1.60;;;-3.70;99.90;;;;;;5035253;28;20227;-49
2021/12/25 06:36:44;;;;;;;2.30;1.90;;;-3.70;99.90;;;;;;5053294;28;20605;-49
2021/12/25 06:39:23;;;;;;;5.30;1.77;;;-3.70;99.90;;;;;;5035190;28;20204;-49
2021/12/25 06:42:11;;;;;;;4.70;2.03;;;-3.70;99.90;;;;;;5052219;28;20218;-49
2021/12/25 06:44:38;;;;;;;6.55;1.88;;;-3.70;99.90;;;;;;5034847;28;20254;-49
2021/12/25 06:47:05;;;;;;;4.43;1.70;;;-3.70;99.90;;;;;;5052615;28;20291;-49
2021/12/25 06:49:35;;;;;;;5.55;1.70;;;-3.70;99.90;;;;;;5034779;28;20208;-50
2021/12/25 06:52:34;;;;;;;2.58;1.98;;;-3.80;99.90;;;;;;5062707;28;20266;-50
2021/12/25 06:55:27;;;;;;;3.05;2.17;;;-3.80;99.90;;;;;;5054650;28;20226;-50
2021/12/25 06:58:08;;;;;;;2.25;2.05;;;-3.80;99.90;;;;;;5054418;28;20234;-50
2021/12/25 07:00:34;;;;;;;2.45;2.03;;;-4.00;99.90;;;;;;5073273;28;20680;-49
2021/12/25 07:03:05;;;;;;;4.25;2.50;;;-3.80;99.90;;;;;;5034686;28;20214;-49
2021/12/25 07:05:50;;;;;;;5.80;2.03;;;-3.80;99.90;;;;;;5053099;28;20312;-49
2021/12/25 07:08:33;;;;;;;3.13;1.70;;;-3.80;99.90;;;;;;5034310;28;20298;-49
2021/12/25 07:11:11;;;;;;;3.17;2.13;;;-4.10;99.90;;;;;;5034827;28;20200;-49
2021/12/25 07:14:04;;;;;;;3.53;2.35;;;-3.90;99.90;;;;;;5034715;28;20211;-49
2021/12/25 07:16:43;;;;;;;3.08;1.95;;;-3.90;99.90;;;;;;5052550;28;20224;-49
2021/12/25 07:19:28;;;;;;;2.97;2.15;;;-3.90;99.90;;;;;;5052252;28;20202;-49
2021/12/25 07:22:06;;;;;;;2.92;1.85;;;-3.90;99.90;;;;;;5034507;28;20207;-49
2021/12/25 07:24:50;;;;;;;3.03;1.67;;;-3.90;99.90;;;;;;5034295;28;20287;-50
2021/12/25 07:27:37;;;;;;;3.40;2.25;;;-3.90;99.90;;;;;;5044708;28;20233;-49
2021/12/25 07:30:07;;;;;;;2.58;1.92;;;-3.90;99.90;;;;;;5052092;28;20207;-50
2021/12/25 07:32:34;;;;;;;4.88;2.20;;;-4.00;99.90;;;;;;5051739;28;20212;-50
2021/12/25 07:35:01;;;;;;;4.60;2.50;;;-4.00;99.90;;;;;;5051956;28;20195;-49
2021/12/25 07:37:27;;;;;;;2.70;2.17;;;-4.00;99.90;;;;;;5052200;28;20581;-49
2021/12/25 07:39:54;;;;;;;6.65;2.35;;;-4.00;99.90;;;;;;5051673;28;20206;-49
2021/12/25 07:42:21;;;;;;;3.60;2.38;;;-4.00;99.90;;;;;;5052065;28;20200;-49
2021/12/25 07:45:22;;;;;;;3.83;1.95;;;-4.00;99.90;;;;;;5034264;28;20224;-49
2021/12/25 07:47:56;;;;;;;5.82;2.40;;;-3.90;99.90;;;;;;5051529;28;20188;-49
2021/12/25 07:50:23;;;;;;;5.75;3.22;;;-3.90;99.90;;;;;;5051664;28;20196;-49
2021/12/25 07:52:49;;;;;;;5.05;2.55;;;-3.90;99.90;;;;;;5064414;28;20195;-49
2021/12/25 07:55:16;;;;;;;5.00;2.53;;;-3.90;99.90;;;;;;5070846;28;20223;-49
2021/12/25 07:57:43;;;;;;;3.95;2.83;;;-3.90;99.90;;;;;;5070982;28;20238;-48
2021/12/25 08:00:11;;;;;;;6.22;2.20;;;-3.90;99.90;;;;;;5071703;28;20202;-50
2021/12/25 08:02:43;;;;;;;6.03;2.80;;;-3.90;99.90;;;;;;5072106;28;20211;-50
2021/12/25 08:05:10;;;;;;;3.83;2.50;;;-3.80;99.90;;;;;;5071405;28;20215;-49
2021/12/25 08:07:37;;;;;;;6.07;2.80;;;-3.80;99.90;;;;;;5071506;28;20187;-49
2021/12/25 08:10:13;;;;;;;6.70;2.67;;;-3.80;99.90;;;;;;5071605;28;20195;-50
2021/12/25 08:12:42;;;;;;;5.95;2.83;;;-3.80;99.90;;;;;;5071652;28;20301;-49
2021/12/25 08:15:10;;;;;;;8.93;4.35;;;-3.70;99.90;;;;;;5071329;28;20749;-49
2021/12/25 08:17:36;;;;;;;7.07;2.20;;;-3.70;99.90;;;;;;5071234;28;20219;-49
2021/12/25 08:20:28;;;;;;;3.50;2.58;;;-3.70;99.90;;;;;;5024385;28;20661;-50
2021/12/25 08:23:14;;;;;;;4.80;2.47;;;-3.60;99.90;;;;;;5071726;28;20222;-50
2021/12/25 08:26:06;;;;;;;3.28;2.47;;;-3.60;99.90;;;;;;5071547;28;20235;-50
2021/12/25 08:28:52;;;;;;;3.92;2.78;;;-3.60;99.90;;;;;;5071442;28;20322;-48
2021/12/25 08:31:37;;;;;;;3.65;2.50;;;-3.60;99.90;;;;;;5071738;28;20241;-49
2021/12/25 08:34:22;;;;;;;5.75;2.83;;;-3.50;99.90;;;;;;5072018;28;20653;-49
2021/12/25 08:37:02;;;;;;;6.57;2.95;;;-3.40;99.90;;;;;;5053442;28;20233;-49
2021/12/25 08:39:29;;;;;;;4.65;2.70;;;-3.50;99.90;;;;;;5070641;28;20602;-50
2021/12/25 08:42:01;;;;;;;6.75;3.67;;;-3.50;99.90;;;;;;5071354;28;20203;-50
2021/12/25 08:44:34;;;;;;;4.20;2.97;;;-3.40;99.90;;;;;;5053128;28;20204;-50
2021/12/25 08:47:04;;;;;;;11.50;2.63;;;-3.40;99.90;;;;;;5071495;28;20218;-51
2021/12/25 08:49:32;;;;;;;3.47;2.53;;;-3.30;99.90;;;;;;5071067;28;20234;-50
2021/12/25 08:52:03;;;;;;;5.60;2.70;;;-3.50;99.90;;;;;;5071197;28;20206;-48
2021/12/25 08:54:31;;;;;;;5.07;3.00;;;-3.20;99.90;;;;;;5071276;28;20814;-51
2021/12/25 08:56:59;;;;;;;3.55;2.30;;;-3.20;99.90;;;;;;5071107;28;20344;-49
2021/12/25 08:59:27;;;;;;;5.07;2.40;;;-3.20;99.90;;;;;;5074007;28;20223;-48
2021/12/25 09:01:54;;;;;;;3.88;2.72;;;-3.20;99.90;;;;;;5074985;28;20674;-50
2021/12/25 09:04:20;;;;;;;3.45;2.47;;;-3.20;99.90;;;;;;5075096;28;20203;-49
2021/12/25 09:06:47;;;;;;;3.55;2.28;;;-3.10;99.90;;;;;;5075810;28;20222;-49
2021/12/25 09:09:15;;;;;;;4.18;3.05;;;-3.00;99.90;;;;;;5074903;28;20556;-49
2021/12/25 09:11:42;;;;;;;8.35;2.80;;;-3.00;99.90;;;;;;5074990;28;20577;-49
2021/12/25 09:14:09;;;;;;;7.35;2.83;;;-3.00;99.90;;;;;;5074579;28;20195;-49
2021/12/25 09:16:36;;;;;;;5.72;3.00;;;-3.00;99.90;;;;;;5074117;28;20214;-50
2021/12/25 09:19:03;;;;;;;7.82;3.22;;;-2.90;99.90;;;;;;5056219;28;20219;-50
2021/12/25 09:21:29;;;;;;;5.07;2.90;;;-2.90;99.90;;;;;;5074707;28;20555;-50
2021/12/25 09:23:57;;;;;;;4.95;3.40;;;-2.90;99.90;;;;;;5074448;28;20199;-50
2021/12/25 09:26:25;;;;;;;4.63;2.88;;;-2.90;99.90;;;;;;5074116;28;20222;-50
2021/12/25 09:28:52;;;;;;;5.05;2.90;;;-2.90;99.90;;;;;;5073912;28;20192;-50
2021/12/25 09:31:19;;;;;;;4.00;2.67;;;-2.90;99.90;;;;;;5074138;28;20211;-50
2021/12/25 09:33:46;;;;;;;2.72;1.98;;;-2.90;99.90;;;;;;5074331;28;20199;-50
2021/12/25 09:36:13;;;;;;;7.68;2.53;;;-2.80;99.90;;;;;;5073727;28;20216;-50
2021/12/25 09:38:40;;;;;;;4.68;3.08;;;-2.80;99.90;;;;;;5073858;28;20230;-50
2021/12/25 09:41:07;;;;;;;4.03;2.63;;;-2.80;99.90;;;;;;5073866;28;20652;-50
2021/12/25 09:43:35;;;;;;;6.05;3.20;;;-2.80;99.90;;;;;;5073896;28;20187;-50
2021/12/25 09:46:02;;;;;;;4.10;2.63;;;-2.90;99.90;;;;;;5073972;28;20586;-50
2021/12/25 09:48:29;;;;;;;9.45;4.50;;;-2.90;99.90;;;;;;5073533;28;20579;-50
2021/12/25 09:50:55;;;;;;;4.85;3.30;;;-2.70;99.90;;;;;;5073890;28;20203;-50
2021/12/25 09:53:23;;;;;;;7.30;3.38;;;-2.70;99.90;;;;;;5074107;28;20200;-50
2021/12/25 09:55:52;;;;;;;5.30;3.88;;;-2.70;99.90;;;;;;5073752;28;20659;-50
2021/12/25 09:58:19;;;;;;;7.60;3.25;;;-2.60;99.90;;;;;;5073511;28;20227;-50
2021/12/25 10:00:51;;;;;;;13.70;3.42;;;-2.60;99.90;;;;;;5073407;28;20543;-50
2021/12/25 10:03:17;;;;;;;6.32;3.13;;;-2.50;99.90;;;;;;5073912;28;20199;-50
2021/12/25 10:05:46;;;;;;;5.07;2.55;;;-2.50;99.90;;;;;;5073626;28;20560;-50
2021/12/25 10:08:15;;;;;;;5.25;2.40;;;-2.50;99.90;;;;;;5072837;28;20211;-50
2021/12/25 10:10:44;;;;;;;5.60;3.17;;;-2.50;99.90;;;;;;5073969;28;20199;-50
2021/12/25 10:13:23;;;;;;;3.80;3.08;;;-2.50;99.90;;;;;;5073437;28;20270;-50
2021/12/25 10:15:52;;;;;;;4.85;3.13;;;-2.40;99.90;;;;;;5074129;28;20556;-50
2021/12/25 10:18:27;;;;;;;5.93;2.97;;;-2.40;99.90;;;;;;5073027;28;20215;-50
2021/12/25 10:20:53;;;;;;;6.75;3.38;;;-2.40;99.90;;;;;;5073274;28;20591;-50
2021/12/25 10:23:28;;;;;;;9.30;4.00;;;-2.30;99.90;;;;;;5073683;28;20195;-50
2021/12/25 10:25:56;;;;;;;4.57;3.80;;;-2.30;99.90;;;;;;5073268;28;20651;-50
2021/12/25 10:28:29;;;;;;;4.65;3.10;;;-2.30;99.90;;;;;;5072984;28;20187;-50
2021/12/25 10:31:00;;;;;;;4.07;3.38;;;-2.20;99.90;;;;;;5073514;28;20203;-50
2021/12/25 10:33:30;;;;;;;8.40;3.40;;;-2.20;99.90;;;;;;5075079;28;20191;-50
2021/12/25 10:36:00;;;;;;;8.93;3.40;;;-2.20;99.90;;;;;;5073069;28;20211;-50
2021/12/25 10:38:28;;;;;;;7.70;3.45;;;-2.10;99.90;;;;;;5072391;28;20211;-50
2021/12/25 10:41:14;;;;;;;4.75;3.28;;;-2.10;99.90;;;;;;5072469;28;20588;-50
2021/12/25 10:43:42;;;;;;;5.95;3.47;;;-2.00;99.90;;;;;;5072369;28;20662;-50
2021/12/25 10:46:11;;;;;;;4.38;2.92;;;-2.00;99.90;;;;;;5072781;28;20765;-50
2021/12/25 10:48:37;;;;;;;3.10;2.60;;;-2.00;99.90;;;;;;5072745;28;20210;-51
2021/12/25 10:51:05;;;;;;;5.28;3.00;;;-2.00;99.90;;;;;;5072825;28;20199;-51
2021/12/25 10:53:34;;;;;;;6.53;3.00;;;-2.00;99.90;;;;;;5072682;28;20210;-50
2021/12/25 10:56:08;;;;;;;5.45;3.22;;;-2.00;99.90;;;;;;5072532;28;20314;-50
2021/12/25 10:58:34;;;;;;;6.68;2.72;;;-1.90;99.90;;;;;;5072146;28;20277;-50
2021/12/25 11:01:01;;;;;;;3.50;2.67;;;-2.10;99.90;;;;;;5072598;28;20593;-50
2021/12/25 11:03:32;;;;;;;4.75;2.97;;;-1.90;99.90;;;;;;5072198;28;20200;-51
2021/12/25 11:06:06;;;;;;;5.97;2.42;;;-2.00;99.90;;;;;;5072663;28;20722;-50
2021/12/25 11:08:34;;;;;;;4.45;2.33;;;-1.90;99.90;;;;;;5071791;28;20196;-50
2021/12/25 11:11:03;;;;;;;4.05;2.50;;;-1.90;99.90;;;;;;5072519;28;20203;-50
2021/12/25 11:13:34;;;;;;;10.82;5.03;;;-1.80;99.90;;;;;;5072650;28;20194;-50
2021/12/25 11:16:15;;;;;;;4.68;3.45;;;-1.80;99.90;;;;;;5072609;28;20237;-50
2021/12/25 11:19:01;;;;;;;6.25;2.92;;;-1.80;99.90;;;;;;5071776;28;20218;-49
2021/12/25 11:21:29;;;;;;;3.28;2.80;;;-1.80;99.90;;;;;;5071258;28;20286;-50
2021/12/25 11:24:12;;;;;;;4.80;3.10;;;-1.70;99.90;;;;;;5072144;28;20199;-50
2021/12/25 11:26:40;;;;;;;4.40;3.42;;;-1.70;99.90;;;;;;5072363;28;20262;-48
2021/12/25 11:29:08;;;;;;;6.40;3.22;;;-1.70;99.90;;;;;;5071473;28;20691;-49
2021/12/25 11:31:35;;;;;;;4.75;2.83;;;-1.70;99.90;;;;;;5072077;28;20800;-48
2021/12/25 11:34:04;;;;;;;3.83;3.30;;;-1.70;99.90;;;;;;5072192;28;20217;-49
2021/12/25 11:36:31;;;;;;;9.07;3.60;;;-1.70;99.90;;;;;;5072135;28;20704;-48
2021/12/25 11:38:57;;;;;;;6.80;3.55;;;-1.70;99.90;;;;;;5071249;28;20211;-49
2021/12/25 11:41:29;;;;;;;4.70;3.15;;;-1.70;99.90;;;;;;5071894;28;20192;-48
2021/12/25 11:43:56;;;;;;;10.27;3.17;;;-1.70;99.90;;;;;;5071935;28;20241;-50
2021/12/25 11:46:36;;;;;;;4.43;3.38;;;-1.60;99.90;;;;;;5072139;28;20623;-50
2021/12/25 11:49:10;;;;;;;14.48;3.25;;;-1.60;99.90;;;;;;5072114;28;20230;-50
2021/12/25 11:51:39;;;;;;;7.13;3.50;;;-1.60;99.90;;;;;;5072452;28;20545;-50
2021/12/25 11:54:41;;;;;;;9.25;3.20;;;-1.50;99.90;;;;;;5071716;28;20203;-50
2021/12/25 11:57:32;;;;;;;3.80;2.45;;;-1.50;99.90;;;;;;5071622;28;20241;-50
2021/12/25 11:59:58;;;;;;;5.05;2.75;;;-1.50;99.90;;;;;;5070640;28;20298;-50
2021/12/25 12:02:43;;;;;;;4.78;2.15;;;-1.50;99.90;;;;;;5071840;28;20284;-50
2021/12/25 12:05:24;;;;;;;5.03;2.78;;;-1.40;99.90;;;;;;5071569;28;20321;-49
2021/12/25 12:08:05;;;;;;;4.43;2.10;;;-1.40;99.90;;;;;;5072189;28;20191;-49
2021/12/25 12:11:21;;;;;;;5.18;2.75;;;-1.40;99.90;;;;;;5044481;28;20208;-51
2021/12/25 12:14:20;;;;;;;5.72;3.72;;;-1.40;99.90;;;;;;5049769;28;20298;-50
2021/12/25 12:17:07;;;;;;;3.35;2.50;;;-1.30;99.90;;;;;;5071918;28;20226;-51
2021/12/25 12:19:50;;;;;;;4.18;2.20;;;-1.30;99.90;;;;;;5053317;28;20264;-50
2021/12/25 12:23:18;;;;;;;10.38;2.75;;;-1.30;99.90;;;;;;5071957;28;20206;-50
2021/12/25 12:26:04;;;;;;;4.00;2.42;;;-1.30;99.90;;;;;;4989247;28;20316;-50
2021/12/25 12:28:48;;;;;;;9.18;4.88;;;-1.30;99.90;;;;;;4989385;28;20567;-50
2021/12/25 12:31:45;;;;;;;5.88;2.78;;;-1.30;99.90;;;;;;4989451;28;20197;-51
2021/12/25 12:34:34;;;;;;;4.43;2.40;;;-1.30;99.90;;;;;;4954789;29;20300;-49
2021/12/25 12:37:29;;;;;;;4.30;2.58;;;-1.20;99.90;;;;;;4990290;28;20272;-50
2021/12/25 12:40:26;;;;;;;5.85;2.90;;;-1.20;99.90;;;;;;4993107;28;20300;-50
2021/12/25 12:42:58;;;;;;;5.07;2.97;;;-1.20;99.90;;;;;;4993220;28;20211;-50
2021/12/25 12:45:28;;;;;;;4.60;2.70;;;-1.20;99.90;;;;;;4993757;28;20222;-49
2021/12/25 12:48:12;;;;;;;6.10;2.53;;;-1.20;99.90;;;;;;4993215;28;20568;-49
2021/12/25 12:50:40;;;;;;;6.75;2.67;;;-1.20;99.90;;;;;;4993317;28;20214;-49
2021/12/25 12:53:09;;;;;;;5.40;3.00;;;-1.20;99.90;;;;;;4993314;28;20201;-49
2021/12/25 12:55:38;;;;;;;5.88;2.42;;;-1.20;99.90;;;;;;5012499;28;20242;-50
2021/12/25 12:58:13;;;;;;;5.68;2.70;;;-1.20;99.90;;;;;;5074618;28;20210;-50
2021/12/25 13:00:41;;;;;;;4.80;2.97;;;-1.20;99.90;;;;;;5074981;28;20239;-50
2021/12/25 13:03:08;;;;;;;4.30;2.90;;;-1.20;99.90;;;;;;5075498;28;20199;-50
2021/12/25 13:05:38;;;;;;;5.50;2.67;;;-1.20;99.90;;;;;;5074627;28;20219;-50
2021/12/25 13:08:13;;;;;;;5.50;2.90;;;-1.20;99.90;;;;;;5074193;28;20206;-50
2021/12/25 13:10:48;;;;;;;4.28;2.40;;;-1.20;99.90;;;;;;5074432;28;20562;-50
2021/12/25 13:13:19;;;;;;;6.00;2.38;;;-1.10;99.90;;;;;;5074715;28;20704;-50
2021/12/25 13:15:49;;;;;;;5.00;2.70;;;-1.20;99.90;;;;;;5074494;28;20215;-50
2021/12/25 13:18:17;;;;;;;4.13;2.50;;;-1.20;99.90;;;;;;5073769;28;20199;-50
2021/12/25 13:20:46;;;;;;;5.88;2.13;;;-1.20;99.90;;;;;;5074063;28;20226;-49
2021/12/25 13:23:15;;;;;;;2.80;2.42;;;-1.20;99.90;;;;;;5074347;28;20199;-50
2021/12/25 13:25:50;;;;;;;3.88;2.40;;;-1.20;99.90;;;;;;5074267;28;20234;-50
2021/12/25 13:28:17;;;;;;;5.18;2.20;;;-1.20;99.90;;;;;;5073569;28;20687;-49
2021/12/25 13:30:49;;;;;;;5.10;2.38;;;-1.20;99.90;;;;;;5074342;28;20187;-49
2021/12/25 13:33:19;;;;;;;5.50;3.28;;;-1.20;99.90;;;;;;5073875;28;20427;-50
2021/12/25 13:35:45;;;;;;;3.42;2.50;;;-1.20;99.90;;;;;;5074096;28;20735;-50
2021/12/25 13:38:12;;;;;;;6.22;2.40;;;-1.20;99.90;;;;;;5073686;28;20210;-51
2021/12/25 13:40:49;;;;;;;5.82;2.35;;;-1.20;99.90;;;;;;5073784;28;20294;-49
2021/12/25 13:43:16;;;;;;;2.60;1.85;;;-1.20;99.90;;;;;;5073268;28;20195;-51
2021/12/25 13:45:42;;;;;;;5.45;2.20;;;-1.20;99.70;;;;;;5073902;28;20223;-50
2021/12/25 13:48:09;;;;;;;3.15;1.95;;;-1.20;99.30;;;;;;5073507;28;20199;-50
2021/12/25 13:50:36;;;;;;;4.72;2.35;;;-1.20;99.30;;;;;;5073936;28;20384;-50
2021/12/25 13:53:10;;;;;;;6.85;2.53;;;-1.20;99.10;;;;;;5073487;28;20287;-49
2021/12/25 13:55:37;;;;;;;6.55;2.50;;;-1.20;99.20;;;;;;5075066;28;20310;-49
2021/12/25 13:58:08;;;;;;;6.53;3.83;;;-1.20;99.40;;;;;;5073558;28;20206;-49
2021/12/25 14:00:39;;;;;;;5.97;3.65;;;-1.20;99.40;;;;;;5073881;28;20234;-49
2021/12/25 14:03:08;;;;;;;6.50;3.35;;;-1.20;99.40;;;;;;5053762;28;20196;-50